< < Back
Terminal Aerodrome Forecast


Current Version              Previous Versions:   1  2  3  4  5  6  7  8  9  

Terminal Aerodrome Forecast

067
FTUS42 KILM 191100 CCA
TAFILM
TAF COR
KILM 191151Z 1912/2012 03012KT 4SM RA BR SCT025 BKN040 OVC080
     FM191330 02010KT 6SM -RA BR BKN007 OVC020
      TEMPO 1914/1917 3SM -RA BR
     FM191700 02012G22KT P6SM -RA BKN009 OVC020
     FM200400 03015G25KT 4SM -RA BR OVC007
     FM201000 02015G25KT P6SM BKN010=



Latest METAR

700
SAUS70 KWBC 192000 RRM
MTRILM
METAR KILM 191953Z AUTO 02015G22KT 10SM OVC012 14/12 A3004 RMK AO2 PK
WND 05028/1925 SLP172 T01440122


USA.gov is the U.S. government's official web portal to all federal, state and local government web resources and services.